createdAt,value
2022-08-14T00:03:29.345Z,20.27
2022-08-14T00:08:44.798Z,20.21
2022-08-14T00:13:52.707Z,20.19
2022-08-14T00:19:18.599Z,20.14
2022-08-14T00:24:28.114Z,19.97
2022-08-14T00:29:40.515Z,19.78
2022-08-14T00:34:47.193Z,19.60
2022-08-14T00:43:10.348Z,19.54
2022-08-14T00:49:03.937Z,19.49
2022-08-14T00:54:16.766Z,19.35
2022-08-14T00:59:28.889Z,19.28
2022-08-14T01:04:51.947Z,19.20
2022-08-14T01:10:01.995Z,19.19
2022-08-14T01:15:05.752Z,19.23
2022-08-14T01:20:32.411Z,19.23
2022-08-14T01:25:37.905Z,19.13
2022-08-14T01:30:43.541Z,19.13
2022-08-14T01:36:03.993Z,19.02
2022-08-14T01:41:15.005Z,18.93
2022-08-14T01:46:25.520Z,18.96
2022-08-14T01:51:39.588Z,18.96
2022-08-14T01:56:44.997Z,18.94
2022-08-14T02:01:58.839Z,18.92
2022-08-14T02:07:05.557Z,18.79
2022-08-14T02:12:10.037Z,18.79
2022-08-14T02:17:23.797Z,18.65
2022-08-14T02:22:32.808Z,18.50
2022-08-14T02:28:25.653Z,18.43
2022-08-14T02:33:01.713Z,18.54
2022-08-14T02:38:05.306Z,18.54
2022-08-14T02:43:15.163Z,18.44
2022-08-14T02:49:02.692Z,18.32
2022-08-14T02:53:45.735Z,18.28
2022-08-14T02:58:52.848Z,18.32
2022-08-14T03:03:59.960Z,18.40
2022-08-14T03:09:05.249Z,18.34
2022-08-14T03:14:11.698Z,18.40
2022-08-14T03:19:19.741Z,18.42
2022-08-14T03:24:23.854Z,18.39
2022-08-14T03:29:29.531Z,18.42
2022-08-14T03:34:48.027Z,18.33
2022-08-14T03:39:56.522Z,18.30
2022-08-14T03:45:27.537Z,18.36
2022-08-14T03:50:30.701Z,18.29
2022-08-14T03:55:36.866Z,18.31
2022-08-14T04:00:44.826Z,18.31
2022-08-14T04:05:49.073Z,18.35
2022-08-14T04:10:52.790Z,18.35
2022-08-14T04:16:02.295Z,18.53
2022-08-14T04:21:08.662Z,18.56
2022-08-14T04:26:27.511Z,18.56
2022-08-14T04:33:01.131Z,18.55
2022-08-14T04:37:24.538Z,18.72
2022-08-14T04:42:51.365Z,18.88
2022-08-14T04:48:13.373Z,18.99
2022-08-14T04:53:23.308Z,19.02
2022-08-14T04:58:33.777Z,19.13
2022-08-14T05:03:39.603Z,19.16
2022-08-14T05:08:57.117Z,19.31
2022-08-14T05:14:34.597Z,19.60
2022-08-14T05:19:29.330Z,19.86
2022-08-14T05:24:33.151Z,20.01
2022-08-14T05:29:37.092Z,20.11
2022-08-14T05:34:40.391Z,20.07
2022-08-14T05:39:49.068Z,20.03
2022-08-14T05:44:54.135Z,20.35
2022-08-14T05:49:58.826Z,20.79
2022-08-14T05:55:02.178Z,20.94
2022-08-14T06:00:06.858Z,21.11
2022-08-14T06:05:12.375Z,21.23
2022-08-14T06:10:19.037Z,21.24
2022-08-14T06:15:26.285Z,21.33
2022-08-14T06:20:34.352Z,21.46
2022-08-14T06:25:37.903Z,21.35
2022-08-14T06:30:47.117Z,21.28
2022-08-14T06:35:51.392Z,21.36
2022-08-14T06:40:55.380Z,21.32
2022-08-14T06:46:01.379Z,21.33
2022-08-14T06:51:06.725Z,21.32
2022-08-14T06:56:10.679Z,21.43
2022-08-14T07:01:32.553Z,21.51
2022-08-14T07:06:46.515Z,21.76
2022-08-14T07:11:52.158Z,22.18
2022-08-14T07:16:55.729Z,22.65
2022-08-14T07:22:00.164Z,22.93
2022-08-14T07:27:09.532Z,23.07
2022-08-14T07:32:12.931Z,23.22
2022-08-14T07:37:25.707Z,23.25
2022-08-14T07:42:29.695Z,23.06
2022-08-14T07:47:33.047Z,22.94
2022-08-14T07:52:39.085Z,23.01
2022-08-14T07:57:48.134Z,23.34
2022-08-14T08:02:57.168Z,23.83
2022-08-14T08:08:05.248Z,24.24
2022-08-14T08:13:15.890Z,24.86
2022-08-14T08:18:27.365Z,25.25
2022-08-14T08:23:40.735Z,25.50
2022-08-14T08:28:58.103Z,25.86
2022-08-14T08:34:06.610Z,25.95
2022-08-14T08:39:18.268Z,25.91
2022-08-14T08:44:31.805Z,26.02
2022-08-14T08:49:52.623Z,26.09
2022-08-14T08:55:04.982Z,25.94
2022-08-14T09:00:24.623Z,25.83
2022-08-14T09:05:31.124Z,25.84
2022-08-14T09:10:35.208Z,26.10
2022-08-14T09:15:42.966Z,26.39
2022-08-14T09:20:58.780Z,26.40
2022-08-14T09:26:05.143Z,26.46
2022-08-14T09:31:27.693Z,26.69
2022-08-14T09:37:03.950Z,26.75
2022-08-14T09:42:21.035Z,26.84
2022-08-14T09:47:53.998Z,26.87
2022-08-14T09:53:05.053Z,26.90
2022-08-14T09:58:23.062Z,27.33
2022-08-14T10:03:37.527Z,27.70
2022-08-14T10:08:51.744Z,28.09
2022-08-14T10:14:02.695Z,28.45
2022-08-14T10:19:09.938Z,28.53
2022-08-14T10:24:31.223Z,28.90
2022-08-14T10:29:48.427Z,29.40
2022-08-14T10:34:52.601Z,29.54
2022-08-14T10:40:10.993Z,29.84
2022-08-14T10:45:35.853Z,30.75
2022-08-14T10:50:51.863Z,31.06
2022-08-14T10:56:07.184Z,31.35
2022-08-14T11:01:40.930Z,31.41
2022-08-14T11:06:53.964Z,31.69
2022-08-14T11:12:34.333Z,31.78
2022-08-14T11:17:21.915Z,31.92
2022-08-14T11:22:56.860Z,32.13
2022-08-14T11:27:58.705Z,32.54
2022-08-14T11:33:04.561Z,32.60
2022-08-14T11:38:13.003Z,32.50
2022-08-14T11:43:18.750Z,32.33
2022-08-14T11:49:03.466Z,32.41
2022-08-14T11:54:06.354Z,32.49
2022-08-14T11:59:19.159Z,32.08
2022-08-14T12:04:32.196Z,31.66
2022-08-14T12:09:38.865Z,31.35
2022-08-14T12:15:00.370Z,31.82
2022-08-14T12:20:07.042Z,32.90
2022-08-14T12:25:19.709Z,33.57
2022-08-14T12:30:43.161Z,33.65
2022-08-14T12:35:46.746Z,33.24
2022-08-14T12:40:53.885Z,33.17
2022-08-14T12:45:59.405Z,33.54
2022-08-14T12:51:18.387Z,34.67
2022-08-14T12:56:33.876Z,34.78
2022-08-14T13:01:59.862Z,34.40
2022-08-14T13:07:08.572Z,34.82
2022-08-14T13:12:33.422Z,35.80
2022-08-14T13:17:51.050Z,35.95
2022-08-14T13:22:56.124Z,35.99
2022-08-14T13:28:00.248Z,36.37
2022-08-14T13:33:05.973Z,36.38
2022-08-14T13:38:25.787Z,34.70
2022-08-14T13:43:36.709Z,33.96
2022-08-14T13:48:51.770Z,34.28
2022-08-14T13:54:10.403Z,33.87
2022-08-14T13:59:20.311Z,33.67
2022-08-14T14:04:33.536Z,33.21
2022-08-14T14:09:52.538Z,32.78
2022-08-14T14:14:59.204Z,32.67
2022-08-14T14:20:35.190Z,31.99
2022-08-14T14:25:46.310Z,31.22
2022-08-14T14:30:57.213Z,30.68
2022-08-14T14:36:05.020Z,29.81
2022-08-14T14:41:24.694Z,29.19
2022-08-14T14:47:09.764Z,28.27
2022-08-14T14:52:26.566Z,27.38
2022-08-14T14:57:35.482Z,27.46
2022-08-14T15:02:44.804Z,27.60
2022-08-14T15:07:52.807Z,26.97
2022-08-14T15:13:00.007Z,26.27
2022-08-14T15:18:14.850Z,25.94
2022-08-14T15:23:32.425Z,25.83
2022-08-14T15:28:48.639Z,25.85
2022-08-14T15:34:44.257Z,26.12
2022-08-14T15:39:38.538Z,26.29
2022-08-14T15:44:57.880Z,26.03
2022-08-14T15:50:13.300Z,25.81
2022-08-14T15:55:16.804Z,25.42
2022-08-14T16:00:40.354Z,24.98
2022-08-14T16:05:47.884Z,25.13
2022-08-14T16:10:51.593Z,25.30
2022-08-14T16:15:54.795Z,25.31
2022-08-14T16:21:00.999Z,25.22
2022-08-14T16:26:04.858Z,25.20
2022-08-14T16:31:10.032Z,25.16
2022-08-14T16:36:30.671Z,24.94
2022-08-14T16:41:36.033Z,24.69
2022-08-14T16:46:45.818Z,24.66
2022-08-14T16:51:51.328Z,24.59
2022-08-14T16:57:20.761Z,24.56
2022-08-14T17:02:42.964Z,24.53
2022-08-14T17:08:23.981Z,24.42
2022-08-14T17:13:59.255Z,24.30
2022-08-14T17:19:00.901Z,24.32
2022-08-14T17:24:56.282Z,24.42
2022-08-14T17:29:44.493Z,24.48
2022-08-14T17:35:01.577Z,24.33
2022-08-14T17:40:18.024Z,24.14
2022-08-14T17:45:43.408Z,24.09
2022-08-14T17:50:59.588Z,24.04
2022-08-14T17:56:05.217Z,23.92
2022-08-14T18:01:13.974Z,23.73
2022-08-14T18:06:57.887Z,23.56
2022-08-14T18:11:46.617Z,23.42
2022-08-14T18:16:57.156Z,23.32
2022-08-14T18:22:05.752Z,23.09
2022-08-14T18:27:41.802Z,22.87
2022-08-14T18:32:54.875Z,23.10
2022-08-14T18:38:46.472Z,23.35
2022-08-14T18:43:58.983Z,23.46
2022-08-14T18:49:17.041Z,23.49
2022-08-14T18:54:34.464Z,23.52
2022-08-14T18:59:43.728Z,23.51
2022-08-14T19:04:47.152Z,23.47
2022-08-14T19:09:54.573Z,23.41
2022-08-14T19:15:10.666Z,23.34
2022-08-14T19:20:17.666Z,23.32
2022-08-14T19:25:54.990Z,23.25
2022-08-14T19:31:26.243Z,23.05
2022-08-14T19:37:05.737Z,22.78
2022-08-14T19:42:10.560Z,22.80
2022-08-14T19:47:18.085Z,22.78
2022-08-14T19:52:24.790Z,22.69
2022-08-14T19:57:31.416Z,22.64
2022-08-14T20:02:37.546Z,22.70
2022-08-14T20:07:59.135Z,22.71
2022-08-14T20:13:08.015Z,22.66
2022-08-14T20:18:22.196Z,22.34
2022-08-14T20:23:38.442Z,22.05
2022-08-14T20:28:51.554Z,21.87
2022-08-14T20:34:04.253Z,21.84
2022-08-14T20:39:15.423Z,21.87
2022-08-14T20:44:42.145Z,21.94
2022-08-14T20:49:47.653Z,21.89
2022-08-14T20:54:51.727Z,21.69
2022-08-14T20:59:57.250Z,21.81
2022-08-14T21:05:16.324Z,21.94
2022-08-14T21:10:36.481Z,22.03
2022-08-14T21:15:56.840Z,22.06
2022-08-14T21:21:08.586Z,21.99
2022-08-14T21:26:14.165Z,21.96
2022-08-14T21:31:17.428Z,21.97
2022-08-14T21:36:21.773Z,21.81
2022-08-14T21:41:43.381Z,21.65
2022-08-14T21:46:56.954Z,21.64
2022-08-14T21:52:49.470Z,21.65
2022-08-14T21:57:55.850Z,21.61
2022-08-14T22:02:55.474Z,21.58
2022-08-14T22:07:59.562Z,21.60
2022-08-14T22:13:05.734Z,21.62
2022-08-14T22:18:20.631Z,21.66
2022-08-14T22:23:26.202Z,21.71
2022-08-14T22:28:33.091Z,21.60
2022-08-14T22:33:36.907Z,21.47
2022-08-14T22:38:49.801Z,21.35
2022-08-14T22:43:59.537Z,21.23
2022-08-14T22:49:16.417Z,21.27
2022-08-14T22:54:52.589Z,21.26
2022-08-14T22:59:55.331Z,21.24
2022-08-14T23:05:00.609Z,21.21
2022-08-14T23:10:32.879Z,21.17
2022-08-14T23:15:30.330Z,21.15
2022-08-14T23:20:36.357Z,21.16
2022-08-14T23:25:59.428Z,21.15
2022-08-14T23:31:08.310Z,21.16
2022-08-14T23:36:32.105Z,21.07
2022-08-14T23:41:47.092Z,20.97
2022-08-14T23:47:00.685Z,21.00
2022-08-14T23:52:55.834Z,21.07
2022-08-14T23:57:30.567Z,21.08
